WEATHER DATA

TODAY
Time Temp. Dewp. Hum. Bar.
00:09 11.7 6.6 71 1025.6
00:19 11.7 6.8 72 1025.6
00:29 11.7 6.6 71 1025.5
00:39 11.7 6.6 71 1025.5
00:49 11.7 6.8 72 1025.6
00:59 11.6 6.7 72 1025.6
01:09 11.6 6.5 71 1025.6
01:20 11.6 6.3 70 1025.6
01:29 11.5 6 69 1025.5
01:39 11.5 5.6 67 1025.6
01:50 11.4 5.1 65 1025.6
02:00 11.3 5.2 66 1025.6
02:10 11.3 5.6 68 1025.6
02:20 11.3 5.8 69 1025.6
02:30 11.2 5.5 68 1025.7
02:40 11.2 5.7 69 1025.7
02:50 11.2 5.7 69 1025.8
03:01 11.2 5.5 68 1025.8
03:11 11.2 5.7 69 1025.8
03:21 11.1 5.4 68 1025.8
03:30 11.1 5.6 69 1025.8
03:41 11.1 5.8 70 1025.9
03:51 11.1 5.6 69 1025.9
04:01 11.1 5.2 67 1025.9
04:11 11.1 5.4 68 1025.9
04:21 11.1 5.2 67 1025.9
04:31 11.1 5.4 68 1026
04:41 11.1 5.2 67 1026
04:52 11.1 5.4 68 1026
05:02 11.1 5.8 70 1026
05:12 11.1 5.4 68 1026
05:22 11.1 5.4 68 1026.1
05:32 11 5.5 69 1026.1
05:42 11 5.5 69 1026
05:52 11 5.3 68 1026
06:03 11 5.5 69 1026.1
06:11 11 5.5 69 1026
06:22 11 5.5 69 1026.1
06:32 11 5.7 70 1026.3
06:43 11 5.7 70 1026.3
06:53 11.1 5.8 70 1026.4
07:03 11.1 6 71 1026.4
07:13 11.1 6.2 72 1026.5
07:23 11.1 5.8 70 1026.7
07:33 11.1 5.4 68 1026.7
07:43 11.1 5.4 68 1026.9
07:54 11.1 5.4 68 1027
08:04 11.1 5.2 67 1027
08:13 11.1 5 66 1027.1
08:23 11.1 5.2 67 1027.2
08:34 11.1 5.2 67 1027.2
08:44 11.1 5.2 67 1027.2
08:54 11.1 5.4 68 1027.3
09:04 11.1 5.4 68 1027.3
09:14 11.2 4.9 65 1027.4
09:24 11.2 4.7 64 1027.4
09:45 11.2 5.3 67 1027.4
09:55 11.2 5.5 68 1027.5
10:15 11.3 4.7 64 1027.6
10:25 11.3 5.4 67 1027.5
10:35 11.3 5 65 1027.7
10:45 11.3 4.7 64 1027.7
10:56 11.3 5 65 1027.9
11:05 11.2 4.9 65 1027.9
11:15 11.2 4.9 65 1028
11:25 11.2 4.9 65 1028
11:36 11.2 5.5 68 1028
11:46 11.3 5.4 67 1028
11:56 11.3 5.4 67 1027.9
12:06 11.3 5.6 68 1028
12:16 11.4 5.5 67 1028
12:26 11.4 5.5 67 1028
12:36 11.4 5.3 66 1028
12:47 11.5 5.4 66 1028.1
12:56 11.5 5.6 67 1028
13:06 11.6 5.7 67 1028
13:17 11.7 5.6 66 1027.9
13:27 11.7 5.3 65 1027.9
13:37 11.7 5.6 66 1027.9
13:47 11.8 5.2 64 1027.9
13:57 11.8 5.7 66 1027.9
14:07 11.9 5.5 65 1027.9
14:17 11.9 4.6 61 1027.8
14:27 11.9 4.9 62 1027.8
14:38 12.1 4.6 60 1027.9
14:48 12 5.2 63 1027.9
14:57 12 5.9 66 1027.9
15:08 12 6.5 69 1027.9
15:18 11.8 6.1 68 1027.8
15:28 11.8 5.7 66 1027.8
15:38 11.7 5.8 67 1027.8
15:48 11.7 5.8 67 1027.8
15:58 11.6 5.7 67 1027.8
16:08 11.6 6.1 69 1027.8
16:19 11.6 6.3 70 1027.9
16:29 11.6 6.7 72 1027.9
16:39 11.6 6.3 70 1027.8
16:48 11.5 6.4 71 1027.8
16:59 11.5 6.4 71 1027.8
17:09 11.4 5.7 68 1027.8
17:19 11.4 5.7 68 1027.8
17:29 11.4 5.9 69 1027.8
17:39 11.4 5.9 69 1027.8
17:49 11.3 6 70 1027.9
17:59 11.3 5.6 68 1027.9
18:10 11.2 5.3 67 1027.9
18:20 11.2 5.7 69 1028
18:30 11.2 6.1 71 1028
18:40 11.2 6.1 71 1028
18:50 11.1 5.8 70 1028
19:00 11.1 6.2 72 1028
19:10 11.1 6 71 1028
19:21 11.1 6.2 72 1028
19:31 11.1 6 71 1028.1
19:40 11.1 6.2 72 1028.1
19:50 11.1 6.2 72 1028.2
20:01 11.2 6.3 72 1028.1
20:11 11.1 6 71 1028.2
20:21 11.1 6 71 1028.3
20:31 11.1 6 71 1028.3
20:41 11.1 6.4 73 1028.3
20:51 11.1 6.2 72 1028.2

DAY STATISTIC

2021-09-18
TEMPERATURE
AVERAGE
11.3
HIGH
12.1
14:38
LOW
11.0
05:32
PRESSURE
AVERAGE
1027.1
HIGH
1028.3
20:21
LOW
1025.5
00:29
DEWPOINT
AVERAGE
5.7
HIGH
6.8
00:19
LOW
4.6
14:17
HUMIDITY
AVERAGE
68
HIGH
73
20:41
LOW
60
14:38
TEMPERATURE (°C)
LOW
11.0
HIGH
12.1
AVERAGE
11.3
PRESSURE (hpa)
LOW
1025.5
HIGH
1028.3
AVERAGE
1027.1
DEVICE